sensor_id;sensor_type;location;lat;lon;timestamp;temperature;humidity
17092;DHT22;8661;45.700;4.880;2022-12-20T00:00:56;14.00;99.90
17092;DHT22;8661;45.700;4.880;2022-12-20T00:03:23;14.00;99.90
17092;DHT22;8661;45.700;4.880;2022-12-20T00:05:50;14.10;99.90
17092;DHT22;8661;45.700;4.880;2022-12-20T00:08:17;14.10;99.90
17092;DHT22;8661;45.700;4.880;2022-12-20T00:10:45;14.00;99.90
17092;DHT22;8661;45.700;4.880;2022-12-20T00:13:12;14.00;99.90
17092;DHT22;8661;45.700;4.880;2022-12-20T00:15:39;14.00;99.90
17092;DHT22;8661;45.700;4.880;2022-12-20T00:18:06;14.00;99.90
17092;DHT22;8661;45.700;4.880;2022-12-20T00:20:33;14.00;99.90
17092;DHT22;8661;45.700;4.880;2022-12-20T00:23:01;14.00;99.90
17092;DHT22;8661;45.700;4.880;2022-12-20T00:25:28;14.00;99.90
17092;DHT22;8661;45.700;4.880;2022-12-20T00:27:56;14.00;99.90
17092;DHT22;8661;45.700;4.880;2022-12-20T00:30:23;14.00;99.90
17092;DHT22;8661;45.700;4.880;2022-12-20T00:32:49;14.00;99.90
17092;DHT22;8661;45.700;4.880;2022-12-20T00:35:16;14.10;99.90
17092;DHT22;8661;45.700;4.880;2022-12-20T00:37:43;14.10;99.90
17092;DHT22;8661;45.700;4.880;2022-12-20T00:40:10;14.10;99.90
17092;DHT22;8661;45.700;4.880;2022-12-20T00:42:37;14.10;99.90
17092;DHT22;8661;45.700;4.880;2022-12-20T00:45:06;14.10;99.90
17092;DHT22;8661;45.700;4.880;2022-12-20T00:47:33;14.10;99.90
17092;DHT22;8661;45.700;4.880;2022-12-20T00:50:00;14.10;99.90
17092;DHT22;8661;45.700;4.880;2022-12-20T00:52:27;14.10;99.90
17092;DHT22;8661;45.700;4.880;2022-12-20T00:54:54;14.10;99.90
17092;DHT22;8661;45.700;4.880;2022-12-20T00:57:21;14.10;99.90
17092;DHT22;8661;45.700;4.880;2022-12-20T00:59:47;14.00;99.90
17092;DHT22;8661;45.700;4.880;2022-12-20T01:02:16;14.00;99.90
17092;DHT22;8661;45.700;4.880;2022-12-20T01:04:42;14.00;99.90
17092;DHT22;8661;45.700;4.880;2022-12-20T01:07:09;14.00;99.90
17092;DHT22;8661;45.700;4.880;2022-12-20T01:09:36;14.00;99.90
17092;DHT22;8661;45.700;4.880;2022-12-20T01:12:03;14.00;99.90
17092;DHT22;8661;45.700;4.880;2022-12-20T01:14:30;14.00;99.90
17092;DHT22;8661;45.700;4.880;2022-12-20T01:16:57;14.00;99.90
17092;DHT22;8661;45.700;4.880;2022-12-20T01:19:25;14.10;99.90
17092;DHT22;8661;45.700;4.880;2022-12-20T01:21:52;14.10;99.90
17092;DHT22;8661;45.700;4.880;2022-12-20T01:24:20;14.20;99.90
17092;DHT22;8661;45.700;4.880;2022-12-20T01:26:47;14.20;99.90
17092;DHT22;8661;45.700;4.880;2022-12-20T01:29:14;14.20;99.90
17092;DHT22;8661;45.700;4.880;2022-12-20T01:31:41;14.20;99.90
17092;DHT22;8661;45.700;4.880;2022-12-20T01:34:08;14.20;99.90
17092;DHT22;8661;45.700;4.880;2022-12-20T01:36:37;14.10;99.90
17092;DHT22;8661;45.700;4.880;2022-12-20T01:39:06;14.10;99.90
17092;DHT22;8661;45.700;4.880;2022-12-20T01:41:35;14.10;99.90
17092;DHT22;8661;45.700;4.880;2022-12-20T01:44:03;14.10;99.90
17092;DHT22;8661;45.700;4.880;2022-12-20T01:46:32;14.10;99.90
17092;DHT22;8661;45.700;4.880;2022-12-20T01:49:05;14.10;99.90
17092;DHT22;8661;45.700;4.880;2022-12-20T01:51:37;14.20;99.90
17092;DHT22;8661;45.700;4.880;2022-12-20T01:54:11;14.10;99.90
17092;DHT22;8661;45.700;4.880;2022-12-20T01:56:40;14.10;99.90
17092;DHT22;8661;45.700;4.880;2022-12-20T01:59:08;14.10;99.90
17092;DHT22;8661;45.700;4.880;2022-12-20T02:01:35;14.10;99.90
17092;DHT22;8661;45.700;4.880;2022-12-20T02:04:01;14.10;99.90
17092;DHT22;8661;45.700;4.880;2022-12-20T02:06:29;14.00;99.90
17092;DHT22;8661;45.700;4.880;2022-12-20T02:09:02;14.00;99.90
17092;DHT22;8661;45.700;4.880;2022-12-20T02:11:49;14.00;99.90
17092;DHT22;8661;45.700;4.880;2022-12-20T02:14:31;14.00;99.90
17092;DHT22;8661;45.700;4.880;2022-12-20T02:17:06;14.00;99.90
17092;DHT22;8661;45.700;4.880;2022-12-20T02:22:52;14.00;99.90
17092;DHT22;8661;45.700;4.880;2022-12-20T02:25:44;14.00;99.90
17092;DHT22;8661;45.700;4.880;2022-12-20T02:28:24;14.00;99.90
17092;DHT22;8661;45.700;4.880;2022-12-20T02:30:55;14.00;99.90
17092;DHT22;8661;45.700;4.880;2022-12-20T02:33:24;14.10;99.90
17092;DHT22;8661;45.700;4.880;2022-12-20T02:35:53;14.10;99.90
17092;DHT22;8661;45.700;4.880;2022-12-20T02:38:28;14.10;99.90
17092;DHT22;8661;45.700;4.880;2022-12-20T02:40:57;14.10;99.90
17092;DHT22;8661;45.700;4.880;2022-12-20T02:43:26;14.10;99.90
17092;DHT22;8661;45.700;4.880;2022-12-20T02:46:12;14.10;99.90
17092;DHT22;8661;45.700;4.880;2022-12-20T02:48:40;14.10;99.90
17092;DHT22;8661;45.700;4.880;2022-12-20T02:51:08;14.10;99.90
17092;DHT22;8661;45.700;4.880;2022-12-20T02:53:37;14.10;99.90
17092;DHT22;8661;45.700;4.880;2022-12-20T02:56:08;14.10;99.90
17092;DHT22;8661;45.700;4.880;2022-12-20T02:58:45;14.10;99.90
17092;DHT22;8661;45.700;4.880;2022-12-20T03:01:18;14.10;99.90
17092;DHT22;8661;45.700;4.880;2022-12-20T03:03:47;14.00;99.90
17092;DHT22;8661;45.700;4.880;2022-12-20T03:06:14;14.00;99.90
17092;DHT22;8661;45.700;4.880;2022-12-20T03:08:42;14.00;99.90
17092;DHT22;8661;45.700;4.880;2022-12-20T03:11:09;14.00;99.90
17092;DHT22;8661;45.700;4.880;2022-12-20T03:13:35;14.00;99.90
17092;DHT22;8661;45.700;4.880;2022-12-20T03:16:03;14.10;99.90
17092;DHT22;8661;45.700;4.880;2022-12-20T03:18:31;14.10;99.90
17092;DHT22;8661;45.700;4.880;2022-12-20T03:21:01;14.10;99.90
17092;DHT22;8661;45.700;4.880;2022-12-20T03:23:28;14.10;99.90
17092;DHT22;8661;45.700;4.880;2022-12-20T03:25:55;14.10;99.90
17092;DHT22;8661;45.700;4.880;2022-12-20T03:28:22;14.10;99.90
17092;DHT22;8661;45.700;4.880;2022-12-20T03:30:49;14.10;99.90
17092;DHT22;8661;45.700;4.880;2022-12-20T03:33:16;14.10;99.90
17092;DHT22;8661;45.700;4.880;2022-12-20T03:35:46;14.10;99.90
17092;DHT22;8661;45.700;4.880;2022-12-20T03:38:12;14.10;99.90
17092;DHT22;8661;45.700;4.880;2022-12-20T03:40:39;14.10;99.90
17092;DHT22;8661;45.700;4.880;2022-12-20T03:43:06;14.10;99.90
17092;DHT22;8661;45.700;4.880;2022-12-20T03:45:33;14.10;99.90
17092;DHT22;8661;45.700;4.880;2022-12-20T03:48:00;14.10;99.90
17092;DHT22;8661;45.700;4.880;2022-12-20T03:50:27;14.10;99.90
17092;DHT22;8661;45.700;4.880;2022-12-20T03:52:55;14.10;99.90
17092;DHT22;8661;45.700;4.880;2022-12-20T03:55:22;14.10;99.90
17092;DHT22;8661;45.700;4.880;2022-12-20T03:57:48;14.10;99.90
17092;DHT22;8661;45.700;4.880;2022-12-20T04:00:16;14.10;99.90
17092;DHT22;8661;45.700;4.880;2022-12-20T04:02:43;14.10;99.90
17092;DHT22;8661;45.700;4.880;2022-12-20T04:05:10;14.10;99.90
17092;DHT22;8661;45.700;4.880;2022-12-20T04:07:37;14.10;99.90
17092;DHT22;8661;45.700;4.880;2022-12-20T04:10:07;14.10;99.90
17092;DHT22;8661;45.700;4.880;2022-12-20T04:12:34;14.10;99.90
17092;DHT22;8661;45.700;4.880;2022-12-20T04:15:01;14.10;99.90
17092;DHT22;8661;45.700;4.880;2022-12-20T04:17:28;14.10;99.90
17092;DHT22;8661;45.700;4.880;2022-12-20T04:19:54;14.20;99.90
17092;DHT22;8661;45.700;4.880;2022-12-20T04:22:21;14.20;99.90
17092;DHT22;8661;45.700;4.880;2022-12-20T04:24:48;14.20;99.90
17092;DHT22;8661;45.700;4.880;2022-12-20T04:27:16;14.20;99.90
17092;DHT22;8661;45.700;4.880;2022-12-20T04:29:43;14.20;99.90
17092;DHT22;8661;45.700;4.880;2022-12-20T04:32:10;14.20;99.90
17092;DHT22;8661;45.700;4.880;2022-12-20T04:34:37;14.20;99.90
17092;DHT22;8661;45.700;4.880;2022-12-20T04:37:04;14.20;99.90
17092;DHT22;8661;45.700;4.880;2022-12-20T04:39:30;14.30;99.90
17092;DHT22;8661;45.700;4.880;2022-12-20T04:41:57;14.30;99.90
17092;DHT22;8661;45.700;4.880;2022-12-20T04:44:25;14.30;99.90
17092;DHT22;8661;45.700;4.880;2022-12-20T04:46:52;14.10;99.90
17092;DHT22;8661;45.700;4.880;2022-12-20T04:49:20;14.00;99.90
17092;DHT22;8661;45.700;4.880;2022-12-20T04:51:48;13.90;99.90
17092;DHT22;8661;45.700;4.880;2022-12-20T04:54:15;13.90;99.90
17092;DHT22;8661;45.700;4.880;2022-12-20T04:56:41;13.90;99.90
17092;DHT22;8661;45.700;4.880;2022-12-20T04:59:08;13.90;99.90
17092;DHT22;8661;45.700;4.880;2022-12-20T05:01:37;14.00;99.90
17092;DHT22;8661;45.700;4.880;2022-12-20T05:04:04;14.00;99.90
17092;DHT22;8661;45.700;4.880;2022-12-20T05:06:31;14.00;99.90
17092;DHT22;8661;45.700;4.880;2022-12-20T05:08:57;14.00;99.90
17092;DHT22;8661;45.700;4.880;2022-12-20T05:11:24;14.10;99.90
17092;DHT22;8661;45.700;4.880;2022-12-20T05:13:51;14.10;99.90
17092;DHT22;8661;45.700;4.880;2022-12-20T05:16:18;14.10;99.90
17092;DHT22;8661;45.700;4.880;2022-12-20T05:18:46;14.10;99.90
17092;DHT22;8661;45.700;4.880;2022-12-20T05:21:13;14.10;99.90
17092;DHT22;8661;45.700;4.880;2022-12-20T05:23:57;14.20;99.90
17092;DHT22;8661;45.700;4.880;2022-12-20T05:26:41;14.20;99.90
17092;DHT22;8661;45.700;4.880;2022-12-20T05:29:08;14.20;99.90
17092;DHT22;8661;45.700;4.880;2022-12-20T05:31:35;14.20;99.90
17092;DHT22;8661;45.700;4.880;2022-12-20T05:34:03;14.10;99.90
17092;DHT22;8661;45.700;4.880;2022-12-20T05:36:30;14.10;99.90
17092;DHT22;8661;45.700;4.880;2022-12-20T05:38:57;14.20;99.90
17092;DHT22;8661;45.700;4.880;2022-12-20T05:41:24;14.20;99.90
17092;DHT22;8661;45.700;4.880;2022-12-20T05:43:52;14.20;99.90
17092;DHT22;8661;45.700;4.880;2022-12-20T05:46:19;14.20;99.90
17092;DHT22;8661;45.700;4.880;2022-12-20T05:48:46;14.20;99.90
17092;DHT22;8661;45.700;4.880;2022-12-20T05:51:14;14.30;99.90
17092;DHT22;8661;45.700;4.880;2022-12-20T05:53:41;14.20;99.90
17092;DHT22;8661;45.700;4.880;2022-12-20T05:56:08;14.20;99.90
17092;DHT22;8661;45.700;4.880;2022-12-20T05:58:35;14.30;99.90
17092;DHT22;8661;45.700;4.880;2022-12-20T06:01:03;14.30;99.90
17092;DHT22;8661;45.700;4.880;2022-12-20T06:03:30;14.20;99.90
17092;DHT22;8661;45.700;4.880;2022-12-20T06:05:57;14.20;99.90
17092;DHT22;8661;45.700;4.880;2022-12-20T06:08:25;14.20;99.90
17092;DHT22;8661;45.700;4.880;2022-12-20T06:10:52;14.30;99.90
17092;DHT22;8661;45.700;4.880;2022-12-20T06:13:19;14.30;99.90
17092;DHT22;8661;45.700;4.880;2022-12-20T06:15:46;14.30;99.90
17092;DHT22;8661;45.700;4.880;2022-12-20T06:18:13;14.30;99.90
17092;DHT22;8661;45.700;4.880;2022-12-20T06:20:40;14.30;99.90
17092;DHT22;8661;45.700;4.880;2022-12-20T06:23:07;14.40;99.90
17092;DHT22;8661;45.700;4.880;2022-12-20T06:25:36;14.40;99.90
17092;DHT22;8661;45.700;4.880;2022-12-20T06:28:04;14.40;99.90
17092;DHT22;8661;45.700;4.880;2022-12-20T06:30:32;14.30;99.90
17092;DHT22;8661;45.700;4.880;2022-12-20T06:32:59;14.30;99.90
17092;DHT22;8661;45.700;4.880;2022-12-20T06:35:26;14.30;99.90
17092;DHT22;8661;45.700;4.880;2022-12-20T06:37:53;14.30;99.90
17092;DHT22;8661;45.700;4.880;2022-12-20T06:40:20;14.20;99.90
17092;DHT22;8661;45.700;4.880;2022-12-20T06:42:49;14.30;99.90
17092;DHT22;8661;45.700;4.880;2022-12-20T06:45:16;14.30;99.90
17092;DHT22;8661;45.700;4.880;2022-12-20T06:47:43;14.20;99.90
17092;DHT22;8661;45.700;4.880;2022-12-20T06:50:10;14.20;99.90
17092;DHT22;8661;45.700;4.880;2022-12-20T06:52:37;14.30;99.90
17092;DHT22;8661;45.700;4.880;2022-12-20T06:55:04;14.20;99.90
17092;DHT22;8661;45.700;4.880;2022-12-20T06:57:31;14.20;99.90
17092;DHT22;8661;45.700;4.880;2022-12-20T06:59:59;14.20;99.90
17092;DHT22;8661;45.700;4.880;2022-12-20T07:02:26;14.20;99.90
17092;DHT22;8661;45.700;4.880;2022-12-20T07:04:53;14.20;99.90
17092;DHT22;8661;45.700;4.880;2022-12-20T07:07:20;14.30;99.90
17092;DHT22;8661;45.700;4.880;2022-12-20T07:09:47;14.20;99.90
17092;DHT22;8661;45.700;4.880;2022-12-20T07:12:14;14.20;99.90
17092;DHT22;8661;45.700;4.880;2022-12-20T07:14:42;14.30;99.90
17092;DHT22;8661;45.700;4.880;2022-12-20T07:17:10;14.30;99.90
17092;DHT22;8661;45.700;4.880;2022-12-20T07:19:37;14.30;99.90
17092;DHT22;8661;45.700;4.880;2022-12-20T07:22:04;14.20;99.90
17092;DHT22;8661;45.700;4.880;2022-12-20T07:24:31;14.20;99.90
17092;DHT22;8661;45.700;4.880;2022-12-20T07:26:59;14.20;99.90
17092;DHT22;8661;45.700;4.880;2022-12-20T07:29:26;14.20;99.90
17092;DHT22;8661;45.700;4.880;2022-12-20T07:31:53;14.20;99.90
17092;DHT22;8661;45.700;4.880;2022-12-20T07:34:22;14.30;99.90
17092;DHT22;8661;45.700;4.880;2022-12-20T07:36:48;14.30;99.90
17092;DHT22;8661;45.700;4.880;2022-12-20T07:39:16;14.30;99.90
17092;DHT22;8661;45.700;4.880;2022-12-20T07:41:43;14.30;99.90
17092;DHT22;8661;45.700;4.880;2022-12-20T07:44:10;14.30;99.90
17092;DHT22;8661;45.700;4.880;2022-12-20T07:46:37;14.20;99.90
17092;DHT22;8661;45.700;4.880;2022-12-20T07:49:04;14.30;99.90
17092;DHT22;8661;45.700;4.880;2022-12-20T07:51:35;14.20;99.90
17092;DHT22;8661;45.700;4.880;2022-12-20T07:54:04;14.20;99.90
17092;DHT22;8661;45.700;4.880;2022-12-20T07:56:33;14.20;99.90
17092;DHT22;8661;45.700;4.880;2022-12-20T07:59:02;14.20;99.90
17092;DHT22;8661;45.700;4.880;2022-12-20T08:01:30;14.30;99.90
17092;DHT22;8661;45.700;4.880;2022-12-20T08:04:01;14.30;99.90
17092;DHT22;8661;45.700;4.880;2022-12-20T08:06:30;14.30;99.90
17092;DHT22;8661;45.700;4.880;2022-12-20T08:09:02;14.40;99.90
17092;DHT22;8661;45.700;4.880;2022-12-20T08:11:32;14.40;99.90
17092;DHT22;8661;45.700;4.880;2022-12-20T08:14:00;14.40;99.90
17092;DHT22;8661;45.700;4.880;2022-12-20T08:16:27;14.40;99.90
17092;DHT22;8661;45.700;4.880;2022-12-20T08:18:55;14.40;99.90
17092;DHT22;8661;45.700;4.880;2022-12-20T08:21:22;14.50;99.90
17092;DHT22;8661;45.700;4.880;2022-12-20T08:23:49;14.50;99.90
17092;DHT22;8661;45.700;4.880;2022-12-20T08:26:17;14.50;99.90
17092;DHT22;8661;45.700;4.880;2022-12-20T08:28:44;14.50;99.90
17092;DHT22;8661;45.700;4.880;2022-12-20T08:31:11;14.50;99.90
17092;DHT22;8661;45.700;4.880;2022-12-20T08:33:39;14.60;99.90
17092;DHT22;8661;45.700;4.880;2022-12-20T08:36:09;14.60;99.90
17092;DHT22;8661;45.700;4.880;2022-12-20T08:38:36;14.60;99.90
17092;DHT22;8661;45.700;4.880;2022-12-20T08:41:05;14.70;99.90
17092;DHT22;8661;45.700;4.880;2022-12-20T08:43:34;14.70;99.90
17092;DHT22;8661;45.700;4.880;2022-12-20T08:46:01;14.70;99.90
17092;DHT22;8661;45.700;4.880;2022-12-20T08:48:28;14.70;99.90
17092;DHT22;8661;45.700;4.880;2022-12-20T08:50:59;14.70;99.90
17092;DHT22;8661;45.700;4.880;2022-12-20T08:53:27;14.70;99.90
17092;DHT22;8661;45.700;4.880;2022-12-20T08:55:58;14.70;99.90
17092;DHT22;8661;45.700;4.880;2022-12-20T08:58:28;14.70;99.90
17092;DHT22;8661;45.700;4.880;2022-12-20T09:00:58;14.80;99.90
17092;DHT22;8661;45.700;4.880;2022-12-20T09:03:28;14.90;99.90
17092;DHT22;8661;45.700;4.880;2022-12-20T09:05:55;14.90;99.90
17092;DHT22;8661;45.700;4.880;2022-12-20T09:08:22;14.90;99.90
17092;DHT22;8661;45.700;4.880;2022-12-20T09:10:50;14.90;99.90
17092;DHT22;8661;45.700;4.880;2022-12-20T09:13:17;14.90;99.90
17092;DHT22;8661;45.700;4.880;2022-12-20T09:15:46;14.90;99.90
17092;DHT22;8661;45.700;4.880;2022-12-20T09:18:14;14.90;99.90
17092;DHT22;8661;45.700;4.880;2022-12-20T09:20:42;14.90;99.90
17092;DHT22;8661;45.700;4.880;2022-12-20T09:23:09;15.00;99.90
17092;DHT22;8661;45.700;4.880;2022-12-20T09:25:36;15.00;99.90
17092;DHT22;8661;45.700;4.880;2022-12-20T09:28:04;15.10;99.90
17092;DHT22;8661;45.700;4.880;2022-12-20T09:30:31;15.10;99.90
17092;DHT22;8661;45.700;4.880;2022-12-20T09:32:58;15.10;99.90
17092;DHT22;8661;45.700;4.880;2022-12-20T09:35:27;15.00;99.90
17092;DHT22;8661;45.700;4.880;2022-12-20T09:37:53;15.10;99.90
17092;DHT22;8661;45.700;4.880;2022-12-20T09:40:24;15.10;99.90
17092;DHT22;8661;45.700;4.880;2022-12-20T09:42:52;15.10;99.90
17092;DHT22;8661;45.700;4.880;2022-12-20T09:45:24;15.10;99.90
17092;DHT22;8661;45.700;4.880;2022-12-20T09:47:51;15.10;99.90
17092;DHT22;8661;45.700;4.880;2022-12-20T09:50:20;15.10;99.90
17092;DHT22;8661;45.700;4.880;2022-12-20T09:53:04;15.10;99.90
17092;DHT22;8661;45.700;4.880;2022-12-20T09:55:39;15.10;99.90
17092;DHT22;8661;45.700;4.880;2022-12-20T09:58:22;15.10;99.90
17092;DHT22;8661;45.700;4.880;2022-12-20T10:00:50;15.00;99.90
17092;DHT22;8661;45.700;4.880;2022-12-20T10:03:20;15.00;99.90
17092;DHT22;8661;45.700;4.880;2022-12-20T10:05:51;15.00;99.90
17092;DHT22;8661;45.700;4.880;2022-12-20T10:08:43;15.00;99.90
17092;DHT22;8661;45.700;4.880;2022-12-20T10:11:17;15.10;99.90
17092;DHT22;8661;45.700;4.880;2022-12-20T10:13:58;15.10;99.90
17092;DHT22;8661;45.700;4.880;2022-12-20T10:16:35;15.00;99.90
17092;DHT22;8661;45.700;4.880;2022-12-20T10:19:22;15.00;99.90
17092;DHT22;8661;45.700;4.880;2022-12-20T10:21:54;15.10;99.90
17092;DHT22;8661;45.700;4.880;2022-12-20T10:24:28;15.10;99.90
17092;DHT22;8661;45.700;4.880;2022-12-20T10:26:57;15.10;99.90
17092;DHT22;8661;45.700;4.880;2022-12-20T10:29:28;15.10;99.90
17092;DHT22;8661;45.700;4.880;2022-12-20T10:31:59;15.10;99.90
17092;DHT22;8661;45.700;4.880;2022-12-20T10:34:26;15.10;99.90
17092;DHT22;8661;45.700;4.880;2022-12-20T10:37:10;15.10;99.90
17092;DHT22;8661;45.700;4.880;2022-12-20T10:39:42;15.10;99.90
17092;DHT22;8661;45.700;4.880;2022-12-20T10:42:32;15.20;99.90
17092;DHT22;8661;45.700;4.880;2022-12-20T10:45:02;15.30;99.90
17092;DHT22;8661;45.700;4.880;2022-12-20T10:47:37;15.30;99.90
17092;DHT22;8661;45.700;4.880;2022-12-20T10:50:12;15.40;99.90
17092;DHT22;8661;45.700;4.880;2022-12-20T10:52:41;15.40;99.90
17092;DHT22;8661;45.700;4.880;2022-12-20T10:55:35;15.40;99.90
17092;DHT22;8661;45.700;4.880;2022-12-20T10:58:04;15.40;99.90
17092;DHT22;8661;45.700;4.880;2022-12-20T11:00:31;15.40;99.90
17092;DHT22;8661;45.700;4.880;2022-12-20T11:03:06;15.40;99.90
17092;DHT22;8661;45.700;4.880;2022-12-20T11:05:37;15.40;99.90
17092;DHT22;8661;45.700;4.880;2022-12-20T11:08:11;15.40;99.90
17092;DHT22;8661;45.700;4.880;2022-12-20T11:10:39;15.40;99.90
17092;DHT22;8661;45.700;4.880;2022-12-20T11:13:19;15.40;99.90
17092;DHT22;8661;45.700;4.880;2022-12-20T11:15:48;15.40;99.90
17092;DHT22;8661;45.700;4.880;2022-12-20T11:18:21;15.40;99.90
17092;DHT22;8661;45.700;4.880;2022-12-20T11:20:56;15.40;99.90
17092;DHT22;8661;45.700;4.880;2022-12-20T11:23:34;15.40;99.90
17092;DHT22;8661;45.700;4.880;2022-12-20T11:26:20;15.40;99.90
17092;DHT22;8661;45.700;4.880;2022-12-20T11:29:02;15.40;99.90
17092;DHT22;8661;45.700;4.880;2022-12-20T11:31:39;15.40;99.90
17092;DHT22;8661;45.700;4.880;2022-12-20T11:34:18;15.40;99.90
17092;DHT22;8661;45.700;4.880;2022-12-20T11:37:02;15.40;99.90
17092;DHT22;8661;45.700;4.880;2022-12-20T11:39:37;15.40;99.90
17092;DHT22;8661;45.700;4.880;2022-12-20T11:42:14;15.40;99.90
17092;DHT22;8661;45.700;4.880;2022-12-20T11:44:52;15.40;99.90
17092;DHT22;8661;45.700;4.880;2022-12-20T11:47:37;15.40;99.90
17092;DHT22;8661;45.700;4.880;2022-12-20T11:50:37;15.30;99.90
17092;DHT22;8661;45.700;4.880;2022-12-20T11:53:10;15.30;99.90
17092;DHT22;8661;45.700;4.880;2022-12-20T11:55:40;15.30;99.90
17092;DHT22;8661;45.700;4.880;2022-12-20T11:58:15;15.30;99.90
17092;DHT22;8661;45.700;4.880;2022-12-20T12:00:50;15.30;99.90
17092;DHT22;8661;45.700;4.880;2022-12-20T12:03:22;15.30;99.90
17092;DHT22;8661;45.700;4.880;2022-12-20T12:05:54;15.30;99.90
17092;DHT22;8661;45.700;4.880;2022-12-20T12:08:26;15.30;99.90
17092;DHT22;8661;45.700;4.880;2022-12-20T12:10:58;15.30;99.90
17092;DHT22;8661;45.700;4.880;2022-12-20T12:13:30;15.30;99.90
17092;DHT22;8661;45.700;4.880;2022-12-20T12:16:02;15.30;99.90
17092;DHT22;8661;45.700;4.880;2022-12-20T12:18:33;15.30;99.90
17092;DHT22;8661;45.700;4.880;2022-12-20T12:21:03;15.30;99.90
17092;DHT22;8661;45.700;4.880;2022-12-20T12:23:35;15.30;99.90
17092;DHT22;8661;45.700;4.880;2022-12-20T12:26:11;15.30;99.90
17092;DHT22;8661;45.700;4.880;2022-12-20T12:28:40;15.30;99.90
17092;DHT22;8661;45.700;4.880;2022-12-20T12:31:10;15.30;99.90
17092;DHT22;8661;45.700;4.880;2022-12-20T12:33:44;15.30;99.90
17092;DHT22;8661;45.700;4.880;2022-12-20T12:36:27;15.30;99.90
17092;DHT22;8661;45.700;4.880;2022-12-20T12:39:26;15.30;99.90
17092;DHT22;8661;45.700;4.880;2022-12-20T12:42:25;15.30;99.90
17092;DHT22;8661;45.700;4.880;2022-12-20T12:44:59;15.40;99.90
17092;DHT22;8661;45.700;4.880;2022-12-20T12:47:33;15.50;99.90
17092;DHT22;8661;45.700;4.880;2022-12-20T12:50:03;15.50;99.90
17092;DHT22;8661;45.700;4.880;2022-12-20T12:52:42;15.60;99.90
17092;DHT22;8661;45.700;4.880;2022-12-20T12:55:37;15.60;99.90
17092;DHT22;8661;45.700;4.880;2022-12-20T12:58:30;15.50;99.90
17092;DHT22;8661;45.700;4.880;2022-12-20T13:00:59;15.50;99.90
17092;DHT22;8661;45.700;4.880;2022-12-20T13:03:45;15.40;99.90
17092;DHT22;8661;45.700;4.880;2022-12-20T13:06:42;15.40;99.90
17092;DHT22;8661;45.700;4.880;2022-12-20T13:09:19;15.40;99.90
17092;DHT22;8661;45.700;4.880;2022-12-20T13:11:47;15.40;99.90
17092;DHT22;8661;45.700;4.880;2022-12-20T13:14:48;15.40;99.90
17092;DHT22;8661;45.700;4.880;2022-12-20T13:17:47;15.40;99.90
17092;DHT22;8661;45.700;4.880;2022-12-20T13:20:17;15.40;99.90
17092;DHT22;8661;45.700;4.880;2022-12-20T13:23:04;15.40;99.90
17092;DHT22;8661;45.700;4.880;2022-12-20T13:25:33;15.30;99.90
17092;DHT22;8661;45.700;4.880;2022-12-20T13:31:29;15.30;99.90
17092;DHT22;8661;45.700;4.880;2022-12-20T13:33:59;15.30;99.90
17092;DHT22;8661;45.700;4.880;2022-12-20T13:36:35;15.30;99.90
17092;DHT22;8661;45.700;4.880;2022-12-20T13:39:30;15.40;99.90
17092;DHT22;8661;45.700;4.880;2022-12-20T13:42:14;15.30;99.90
17092;DHT22;8661;45.700;4.880;2022-12-20T13:44:44;15.40;99.90
17092;DHT22;8661;45.700;4.880;2022-12-20T13:47:35;15.40;99.90
17092;DHT22;8661;45.700;4.880;2022-12-20T13:50:25;15.40;99.90
17092;DHT22;8661;45.700;4.880;2022-12-20T13:52:53;15.40;99.90
17092;DHT22;8661;45.700;4.880;2022-12-20T13:55:30;15.30;99.90
17092;DHT22;8661;45.700;4.880;2022-12-20T13:58:03;15.40;99.90
17092;DHT22;8661;45.700;4.880;2022-12-20T14:00:33;15.30;99.90
17092;DHT22;8661;45.700;4.880;2022-12-20T14:03:01;15.20;99.90
17092;DHT22;8661;45.700;4.880;2022-12-20T14:05:34;15.30;99.90
17092;DHT22;8661;45.700;4.880;2022-12-20T14:08:04;15.30;99.90
17092;DHT22;8661;45.700;4.880;2022-12-20T14:10:33;15.30;99.90
17092;DHT22;8661;45.700;4.880;2022-12-20T14:13:00;15.30;99.90
17092;DHT22;8661;45.700;4.880;2022-12-20T14:15:29;15.30;99.90
17092;DHT22;8661;45.700;4.880;2022-12-20T14:18:04;15.30;99.90
17092;DHT22;8661;45.700;4.880;2022-12-20T14:20:33;15.30;99.90
17092;DHT22;8661;45.700;4.880;2022-12-20T14:23:03;15.30;99.90
17092;DHT22;8661;45.700;4.880;2022-12-20T14:25:34;15.30;99.90
17092;DHT22;8661;45.700;4.880;2022-12-20T14:28:02;15.30;99.90
17092;DHT22;8661;45.700;4.880;2022-12-20T14:30:35;15.30;99.90
17092;DHT22;8661;45.700;4.880;2022-12-20T14:33:18;15.30;99.90
17092;DHT22;8661;45.700;4.880;2022-12-20T14:35:48;15.30;99.90
17092;DHT22;8661;45.700;4.880;2022-12-20T14:38:20;15.30;99.90
17092;DHT22;8661;45.700;4.880;2022-12-20T14:40:48;15.30;99.90
17092;DHT22;8661;45.700;4.880;2022-12-20T14:43:15;15.30;99.90
17092;DHT22;8661;45.700;4.880;2022-12-20T14:45:42;15.30;99.90
17092;DHT22;8661;45.700;4.880;2022-12-20T14:48:15;15.40;99.90
17092;DHT22;8661;45.700;4.880;2022-12-20T14:50:51;15.40;99.90
17092;DHT22;8661;45.700;4.880;2022-12-20T14:53:23;15.30;99.90
17092;DHT22;8661;45.700;4.880;2022-12-20T14:55:53;15.30;99.90
17092;DHT22;8661;45.700;4.880;2022-12-20T14:58:26;15.30;99.90
17092;DHT22;8661;45.700;4.880;2022-12-20T15:00:56;15.30;99.90
17092;DHT22;8661;45.700;4.880;2022-12-20T15:03:24;15.30;99.90
17092;DHT22;8661;45.700;4.880;2022-12-20T15:05:56;15.20;99.90
17092;DHT22;8661;45.700;4.880;2022-12-20T15:08:25;15.30;99.90
17092;DHT22;8661;45.700;4.880;2022-12-20T15:11:07;15.30;99.90
17092;DHT22;8661;45.700;4.880;2022-12-20T15:13:39;15.20;99.90
17092;DHT22;8661;45.700;4.880;2022-12-20T15:16:13;15.20;99.90
17092;DHT22;8661;45.700;4.880;2022-12-20T15:18:40;15.30;99.90
17092;DHT22;8661;45.700;4.880;2022-12-20T15:21:12;15.20;99.90
17092;DHT22;8661;45.700;4.880;2022-12-20T15:23:44;15.20;99.90
17092;DHT22;8661;45.700;4.880;2022-12-20T15:26:14;15.20;99.90
17092;DHT22;8661;45.700;4.880;2022-12-20T15:28:41;15.20;99.90
17092;DHT22;8661;45.700;4.880;2022-12-20T15:31:09;15.20;99.90
17092;DHT22;8661;45.700;4.880;2022-12-20T15:33:37;15.20;99.90
17092;DHT22;8661;45.700;4.880;2022-12-20T15:36:05;15.20;99.90
17092;DHT22;8661;45.700;4.880;2022-12-20T15:38:33;15.20;99.90
17092;DHT22;8661;45.700;4.880;2022-12-20T15:41:03;15.20;99.90
17092;DHT22;8661;45.700;4.880;2022-12-20T15:43:33;15.30;99.90
17092;DHT22;8661;45.700;4.880;2022-12-20T15:46:01;15.20;99.90
17092;DHT22;8661;45.700;4.880;2022-12-20T15:48:28;15.20;99.90
17092;DHT22;8661;45.700;4.880;2022-12-20T15:50:57;15.20;99.90
17092;DHT22;8661;45.700;4.880;2022-12-20T15:53:27;15.30;99.90
17092;DHT22;8661;45.700;4.880;2022-12-20T15:55:56;15.30;99.90
17092;DHT22;8661;45.700;4.880;2022-12-20T15:58:23;15.30;99.90
17092;DHT22;8661;45.700;4.880;2022-12-20T16:00:52;15.30;99.90
17092;DHT22;8661;45.700;4.880;2022-12-20T16:03:22;15.30;99.90
17092;DHT22;8661;45.700;4.880;2022-12-20T16:05:49;15.30;99.90
17092;DHT22;8661;45.700;4.880;2022-12-20T16:08:17;15.30;99.90
17092;DHT22;8661;45.700;4.880;2022-12-20T16:10:44;15.20;99.90
17092;DHT22;8661;45.700;4.880;2022-12-20T16:13:20;15.20;99.90